Terminal Aerodrome Forecast
Issued by NWS

Current Version | Previous Version | Text Only | Print | Product List | Glossary On
Versions: 1 2 3 4 5 6 7 8 9 10 11 12 13 14 15 16 17 18 19 20 21 22 23 24 25 26 27 28 29 30 31 32 33 34
018
FTUS42 KCAE 232334
TAFDNL
TAF
KDNL 232334Z 2400/2424 20010KT P6SM SCT050 SCT250
     FM240600 23008KT P6SM SCT015 BKN100
     FM241200 25008KT P6SM -SHRA SCT025 OVC035
     FM241800 26010KT P6SM -SHRA VCTS SCT030CB OVC050=

USA.gov is the U.S. government's official web portal to all federal, state and local government web resources and services.